Time;durP1;ratioP1;P1;durP2;ratioP2;P2;SDS_P1;SDS_P2;PMS_P1;PMS_P2;Temp;Humidity;BMP_temperature;BMP_pressure;BME280_temperature;BME280_humidity;BME280_pressure;Samples;Min_cycle;Max_cycle;Signal;HPM_P1;HPM_P2
2022/07/16 00:03:12;;;;;;;6.70;6.40;;;;;;;-143.83;100.00;62900.06;5114189;28;20390;-62
2022/07/16 00:05:37;;;;;;;6.90;6.60;;;;;;;-143.83;100.00;62900.06;5103714;28;20028;-61
2022/07/16 00:08:03;;;;;;;6.60;6.30;;;;;;;-143.83;100.00;62900.06;5115748;28;20036;-61
2022/07/16 00:10:29;;;;;;;6.80;6.50;;;;;;;-143.83;100.00;62900.06;5115726;28;20448;-61
2022/07/16 00:12:54;;;;;;;6.80;6.50;;;;;;;-143.83;100.00;62900.06;5115485;28;20031;-62
2022/07/16 00:15:20;;;;;;;6.50;6.20;;;;;;;-143.83;100.00;62900.06;5111081;28;20032;-62
2022/07/16 00:17:45;;;;;;;6.50;6.20;;;;;;;-143.83;100.00;62900.06;5112607;27;20451;-62
2022/07/16 00:20:11;;;;;;;6.60;6.30;;;;;;;-143.83;100.00;62900.06;5115463;28;20110;-62
2022/07/16 00:22:36;;;;;;;6.80;6.50;;;;;;;-143.83;100.00;62900.06;5115776;28;20114;-62
2022/07/16 00:25:04;;;;;;;6.60;6.30;;;;;;;-143.83;100.00;62900.06;5115528;28;20475;-61
2022/07/16 00:27:29;;;;;;;6.40;6.10;;;;;;;-143.83;100.00;62900.06;5115545;28;20084;-62
2022/07/16 00:29:55;;;;;;;6.57;6.28;;;;;;;-143.83;100.00;62900.06;5101441;28;20028;-62
2022/07/16 00:32:20;;;;;;;6.28;6.05;;;;;;;-143.83;100.00;62900.06;5111879;28;20036;-61
2022/07/16 00:34:46;;;;;;;6.43;6.13;;;;;;;-143.83;100.00;62900.06;5111443;27;20031;-62
2022/07/16 00:37:11;;;;;;;6.43;6.13;;;;;;;-143.83;100.00;62900.06;5115394;28;20375;-62
2022/07/16 00:39:37;;;;;;;6.90;6.60;;;;;;;-143.83;100.00;62900.06;5104074;28;20059;-62
2022/07/16 00:42:02;;;;;;;6.55;6.25;;;;;;;-143.83;100.00;62900.06;5105243;28;20027;-62
2022/07/16 00:44:28;;;;;;;6.40;6.10;;;;;;;-143.83;100.00;62900.06;5100551;27;20535;-62
2022/07/16 00:46:54;;;;;;;6.60;6.30;;;;;;;-143.83;100.00;62900.06;5112219;28;20501;-61
2022/07/16 00:49:19;;;;;;;6.43;6.13;;;;;;;-143.83;100.00;62900.06;5111475;28;20035;-61
2022/07/16 00:51:52;;;;;;;6.70;6.40;;;;;;;-143.83;100.00;62900.06;5110483;27;20058;-62
2022/07/16 00:54:19;;;;;;;6.43;6.13;;;;;;;-143.83;100.00;62900.06;5115208;28;20348;-62
2022/07/16 00:56:45;;;;;;;6.50;6.20;;;;;;;-143.83;100.00;62900.06;5106710;28;20020;-62
2022/07/16 00:59:12;;;;;;;6.47;6.18;;;;;;;-143.83;100.00;62900.06;5100919;28;20039;-62
2022/07/16 01:01:38;;;;;;;6.68;6.38;;;;;;;-143.83;100.00;62900.06;5114758;28;20019;-62
2022/07/16 01:04:04;;;;;;;6.55;6.25;;;;;;;-143.83;100.00;62900.06;5114745;28;20427;-62
2022/07/16 01:06:30;;;;;;;6.35;6.05;;;;;;;-143.83;100.00;62900.06;5109364;28;20023;-62
2022/07/16 01:08:57;;;;;;;6.72;6.43;;;;;;;-143.83;100.00;62900.06;5115350;27;20034;-62
2022/07/16 01:11:22;;;;;;;6.50;6.20;;;;;;;-143.83;100.00;62900.06;5114624;28;20015;-62
2022/07/16 01:13:50;;;;;;;6.60;6.30;;;;;;;-143.83;100.00;62900.06;5114595;28;20080;-62
2022/07/16 01:16:16;;;;;;;6.50;6.20;;;;;;;-143.83;100.00;62900.06;5108190;28;20034;-62
2022/07/16 01:18:43;;;;;;;6.40;6.10;;;;;;;-143.83;100.00;62900.06;5107811;28;20027;-62
2022/07/16 01:21:09;;;;;;;6.20;6.00;;;;;;;-143.83;100.00;62900.06;5114546;28;20026;-62
2022/07/16 01:23:35;;;;;;;6.60;6.30;;;;;;;-143.83;100.00;62900.06;5112656;28;20410;-62
2022/07/16 01:26:01;;;;;;;6.35;6.07;;;;;;;-143.83;100.00;62900.06;5114990;27;20094;-62
2022/07/16 01:28:27;;;;;;;6.60;6.30;;;;;;;-143.83;100.00;62900.06;5114147;28;20034;-62
2022/07/16 01:30:52;;;;;;;6.60;6.30;;;;;;;-143.83;100.00;62900.06;5113897;28;20027;-62
2022/07/16 01:33:25;;;;;;;6.50;6.20;;;;;;;-143.83;100.00;62900.06;5114218;28;20020;-62
2022/07/16 01:35:57;;;;;;;6.50;6.20;;;;;;;-143.83;100.00;62900.06;5114246;28;20069;-62
2022/07/16 01:38:23;;;;;;;6.50;6.20;;;;;;;-143.83;100.00;62900.06;5113985;28;20076;-61
2022/07/16 01:40:48;;;;;;;6.50;6.20;;;;;;;-143.83;100.00;62900.06;5111297;27;20035;-62
2022/07/16 01:43:17;;;;;;;6.85;6.55;;;;;;;-143.83;100.00;62900.06;5115189;27;20024;-60
2022/07/16 01:45:43;;;;;;;6.40;6.10;;;;;;;-143.83;100.00;62900.06;5106699;27;20035;-61
2022/07/16 01:48:10;;;;;;;6.60;6.30;;;;;;;-143.83;100.00;62900.06;5114991;27;20555;-62
2022/07/16 01:50:36;;;;;;;6.82;6.53;;;;;;;-143.83;100.00;62900.06;5126348;27;20034;-62
2022/07/16 01:53:03;;;;;;;6.18;5.97;;;;;;;-143.83;100.00;62900.06;5114742;27;20390;-62
2022/07/16 01:55:28;;;;;;;6.50;6.20;;;;;;;-143.83;100.00;62900.06;5113821;28;20020;-62
2022/07/16 01:57:54;;;;;;;6.70;6.40;;;;;;;-143.83;100.00;62900.06;5105043;28;20047;-62
2022/07/16 02:00:19;;;;;;;6.35;6.05;;;;;;;-143.83;100.00;62900.06;5112838;27;20034;-62
2022/07/16 02:02:45;;;;;;;6.18;5.97;;;;;;;-143.83;100.00;62900.06;5113441;28;20032;-62
2022/07/16 02:05:12;;;;;;;6.60;6.30;;;;;;;-143.83;100.00;62900.06;5113678;28;20680;-62
2022/07/16 02:07:38;;;;;;;6.45;6.15;;;;;;;-143.83;100.00;62900.06;5110546;28;20049;-62
2022/07/16 02:10:04;;;;;;;6.53;6.22;;;;;;;-143.83;100.00;62900.06;5113594;28;20478;-62
2022/07/16 02:12:29;;;;;;;6.50;6.20;;;;;;;-143.83;100.00;62900.06;5113403;28;20554;-62
2022/07/16 02:14:55;;;;;;;6.45;6.15;;;;;;;-143.83;100.00;62900.06;5106556;28;20395;-62
2022/07/16 02:17:20;;;;;;;6.50;6.20;;;;;;;-143.83;100.00;62900.06;5112679;27;20069;-62
2022/07/16 02:19:46;;;;;;;6.65;6.35;;;;;;;-143.83;100.00;62900.06;5113281;28;20038;-62
2022/07/16 02:22:12;;;;;;;6.50;6.20;;;;;;;-143.83;100.00;62900.06;5112741;28;20043;-62
2022/07/16 02:24:37;;;;;;;6.50;6.20;;;;;;;-143.83;100.00;62900.06;5113184;28;20026;-62
2022/07/16 02:27:03;;;;;;;6.47;6.18;;;;;;;-143.83;100.00;62900.06;5113100;28;20045;-62
2022/07/16 02:29:29;;;;;;;6.60;6.30;;;;;;;-143.83;100.00;62900.06;5112949;28;20028;-62
2022/07/16 02:31:55;;;;;;;6.93;6.63;;;;;;;-143.83;100.00;62900.06;5104111;28;20054;-62
2022/07/16 02:34:20;;;;;;;6.40;6.10;;;;;;;-143.83;100.00;62900.06;5112172;27;20110;-62
2022/07/16 02:36:46;;;;;;;6.40;6.10;;;;;;;-143.83;100.00;62900.06;5106041;28;20031;-61
2022/07/16 02:39:11;;;;;;;6.75;6.45;;;;;;;-143.83;100.00;62900.06;5111120;28;20522;-62
2022/07/16 02:41:37;;;;;;;6.60;6.30;;;;;;;-143.83;100.00;62900.06;5101585;27;20028;-62
2022/07/16 02:44:03;;;;;;;6.50;6.20;;;;;;;-143.83;100.00;62900.06;5106128;28;20027;-61
2022/07/16 02:46:29;;;;;;;6.18;5.97;;;;;;;-143.83;100.00;62900.06;5109141;28;20110;-61
2022/07/16 02:48:54;;;;;;;6.60;6.30;;;;;;;-143.83;100.00;62900.06;5119967;27;20522;-62
2022/07/16 02:51:19;;;;;;;6.60;6.30;;;;;;;-143.83;100.00;62900.06;5126228;27;20023;-62
2022/07/16 02:53:45;;;;;;;6.80;6.50;;;;;;;-143.83;100.00;62900.06;5112678;28;20104;-62
2022/07/16 02:56:10;;;;;;;6.60;6.30;;;;;;;-143.83;100.00;62900.06;5112604;28;20123;-62
2022/07/16 02:58:36;;;;;;;6.32;6.07;;;;;;;-143.83;100.00;62900.06;5112769;28;20076;-61
2022/07/16 03:01:02;;;;;;;6.60;6.30;;;;;;;-143.83;100.00;62900.06;5112599;28;20032;-62
2022/07/16 03:03:27;;;;;;;6.50;6.20;;;;;;;-143.83;100.00;62900.06;5103334;28;20028;-61
2022/07/16 03:05:53;;;;;;;6.70;6.40;;;;;;;-143.83;100.00;62900.06;5101459;28;20447;-61
2022/07/16 03:08:18;;;;;;;6.50;6.20;;;;;;;-143.83;100.00;62900.06;5115028;28;20066;-62
2022/07/16 03:10:44;;;;;;;6.55;6.25;;;;;;;-143.83;100.00;62900.06;5112348;28;20478;-62
2022/07/16 03:13:10;;;;;;;6.40;6.10;;;;;;;-143.83;100.00;62900.06;5112069;28;20016;-62
2022/07/16 03:15:35;;;;;;;6.45;6.15;;;;;;;-143.83;100.00;62900.06;5112446;28;20080;-62
2022/07/16 03:18:01;;;;;;;6.50;6.20;;;;;;;-143.83;100.00;62900.06;5112319;28;20401;-62
2022/07/16 03:20:26;;;;;;;6.63;6.32;;;;;;;-143.83;100.00;62900.06;5107806;28;20023;-62
2022/07/16 03:22:52;;;;;;;6.70;6.40;;;;;;;-143.83;100.00;62900.06;5112255;28;20038;-62
2022/07/16 03:25:17;;;;;;;6.50;6.20;;;;;;;-143.83;100.00;62900.06;5112081;28;20106;-62
2022/07/16 03:27:43;;;;;;;6.60;6.30;;;;;;;-143.83;100.00;62900.06;5112123;28;20020;-62
2022/07/16 03:30:10;;;;;;;6.40;6.10;;;;;;;-143.83;100.00;62900.06;5109431;28;20024;-62
2022/07/16 03:32:36;;;;;;;6.80;6.50;;;;;;;-143.83;100.00;62900.06;5097574;28;20027;-62
2022/07/16 03:35:06;;;;;;;6.80;6.50;;;;;;;-143.83;100.00;62900.06;5097724;28;20131;-61
2022/07/16 03:37:32;;;;;;;7.00;6.70;;;;;;;-143.83;100.00;62900.06;5111798;28;20031;-61
2022/07/16 03:39:58;;;;;;;6.90;6.60;;;;;;;-143.83;100.00;62900.06;5113488;28;20099;-62
2022/07/16 03:42:24;;;;;;;6.88;6.57;;;;;;;-143.83;100.00;62900.06;5116185;27;20098;-62
2022/07/16 03:44:49;;;;;;;7.15;6.85;;;;;;;-143.83;100.00;62900.06;5117776;27;20135;-62
2022/07/16 03:47:15;;;;;;;6.80;6.50;;;;;;;-143.83;100.00;62900.06;5111662;27;20031;-61
2022/07/16 03:49:40;;;;;;;6.72;6.43;;;;;;;-143.83;100.00;62900.06;5119428;27;20108;-61
2022/07/16 03:52:06;;;;;;;6.90;6.60;;;;;;;-143.83;100.00;62900.06;5115887;27;20490;-61
2022/07/16 03:54:31;;;;;;;6.80;6.50;;;;;;;-143.83;100.00;62900.06;5109652;27;20044;-62
2022/07/16 03:56:57;;;;;;;6.90;6.60;;;;;;;-143.83;100.00;62900.06;5112884;28;20031;-61
2022/07/16 03:59:22;;;;;;;6.82;6.53;;;;;;;-143.83;100.00;62900.06;5118061;27;20055;-62
2022/07/16 04:01:48;;;;;;;7.10;6.80;;;;;;;-143.83;100.00;62900.06;5122915;27;20031;-61
2022/07/16 04:04:14;;;;;;;6.78;6.47;;;;;;;-143.83;100.00;62900.06;5116034;27;20028;-61
2022/07/16 04:06:40;;;;;;;6.78;6.47;;;;;;;-143.83;100.00;62900.06;5116906;27;20047;-61
2022/07/16 04:09:06;;;;;;;6.85;6.55;;;;;;;-143.83;100.00;62900.06;5111675;28;20032;-61
2022/07/16 04:11:31;;;;;;;6.93;6.63;;;;;;;-143.83;100.00;62900.06;5115565;28;20035;-61
2022/07/16 04:13:57;;;;;;;7.00;6.70;;;;;;;-143.83;100.00;62900.06;5106256;27;20383;-62
2022/07/16 04:16:23;;;;;;;6.90;6.60;;;;;;;-143.83;100.00;62900.06;5113059;27;20023;-61
2022/07/16 04:18:48;;;;;;;7.10;6.80;;;;;;;-143.83;100.00;62900.06;5112881;28;20061;-62
2022/07/16 04:21:14;;;;;;;7.10;6.80;;;;;;;-143.83;100.00;62900.06;5115441;28;20032;-62
2022/07/16 04:23:39;;;;;;;7.10;6.80;;;;;;;-143.83;100.00;62900.06;5107607;28;20387;-61
2022/07/16 04:26:05;;;;;;;7.20;6.90;;;;;;;-143.83;100.00;62900.06;5114970;28;20023;-61
2022/07/16 04:28:30;;;;;;;7.20;6.90;;;;;;;-143.83;100.00;62900.06;5101707;28;20156;-61
2022/07/16 04:30:56;;;;;;;7.00;6.70;;;;;;;-143.83;100.00;62900.06;5106706;28;20063;-61
2022/07/16 04:33:22;;;;;;;7.10;6.80;;;;;;;-143.83;100.00;62900.06;5114838;27;20454;-62
2022/07/16 04:35:48;;;;;;;7.10;6.80;;;;;;;-143.83;100.00;62900.06;5111668;28;20110;-60
2022/07/16 04:38:15;;;;;;;7.20;6.90;;;;;;;-143.83;100.00;62900.06;5115081;27;20028;-61
2022/07/16 04:40:40;;;;;;;7.10;6.80;;;;;;;-143.83;100.00;62900.06;5117774;27;20506;-61
2022/07/16 04:43:05;;;;;;;7.20;6.90;;;;;;;-143.83;100.00;62900.06;5101106;28;20078;-61
2022/07/16 04:45:31;;;;;;;7.00;6.70;;;;;;;-143.83;100.00;62900.06;5114334;28;20517;-62
2022/07/16 04:47:56;;;;;;;7.00;6.70;;;;;;;-143.83;100.00;62900.06;5106250;28;20053;-61
2022/07/16 04:50:22;;;;;;;6.97;6.68;;;;;;;-143.83;100.00;62900.06;5114109;27;20019;-62
2022/07/16 04:52:47;;;;;;;7.07;6.78;;;;;;;-143.83;100.00;62900.06;5112447;27;20461;-61
2022/07/16 04:55:13;;;;;;;7.00;6.70;;;;;;;-143.83;100.00;62900.06;5121870;27;20387;-61
2022/07/16 04:57:38;;;;;;;7.07;6.78;;;;;;;-143.83;100.00;62900.06;5124092;27;20437;-62
2022/07/16 05:00:05;;;;;;;7.20;6.90;;;;;;;-143.83;100.00;62900.06;5108633;27;20024;-61
2022/07/16 05:05:15;;;;;;;6.95;6.65;;;;;;;-143.83;100.00;62900.06;5096929;27;20039;-61
2022/07/16 05:07:40;;;;;;;7.10;6.80;;;;;;;-143.83;100.00;62900.06;5112409;28;20393;-60
2022/07/16 05:10:06;;;;;;;7.20;6.90;;;;;;;-143.83;100.00;62900.06;5104950;27;20433;-62
2022/07/16 05:12:32;;;;;;;7.30;7.00;;;;;;;-143.83;100.00;62900.06;5106966;27;20031;-60
2022/07/16 05:14:57;;;;;;;7.38;7.07;;;;;;;-143.83;100.00;62900.06;5106234;27;20027;-61
2022/07/16 05:17:23;;;;;;;7.10;6.80;;;;;;;-143.83;100.00;62900.06;5115780;27;20019;-61
2022/07/16 05:19:48;;;;;;;7.35;7.05;;;;;;;-143.83;100.00;62900.06;5116268;27;20027;-61
2022/07/16 05:22:14;;;;;;;7.28;6.97;;;;;;;-143.83;100.00;62900.06;5103348;28;20027;-61
2022/07/16 05:24:39;;;;;;;7.40;7.10;;;;;;;-143.83;100.00;62900.06;5098362;27;20423;-61
2022/07/16 05:27:05;;;;;;;6.95;6.65;;;;;;;-143.83;100.00;62900.06;5100994;27;20023;-62
2022/07/16 05:29:30;;;;;;;7.15;6.85;;;;;;;-143.83;100.00;62900.06;5122218;27;20020;-61
2022/07/16 05:31:56;;;;;;;7.40;7.10;;;;;;;-143.83;100.00;62900.06;5114051;28;20027;-61
2022/07/16 05:34:21;;;;;;;7.38;7.07;;;;;;;-143.83;100.00;62900.06;5125734;27;20023;-61
2022/07/16 05:36:47;;;;;;;7.40;7.10;;;;;;;-143.83;100.00;62900.06;5124167;27;20347;-62
2022/07/16 05:39:12;;;;;;;7.32;7.03;;;;;;;-143.83;100.00;62900.06;5103200;28;20052;-62
2022/07/16 05:41:38;;;;;;;7.30;7.00;;;;;;;-143.83;100.00;62900.06;5110793;28;20068;-61
2022/07/16 05:44:03;;;;;;;7.10;6.80;;;;;;;-143.83;100.00;62900.06;5114118;28;20023;-62
2022/07/16 05:46:29;;;;;;;7.10;6.80;;;;;;;-143.83;100.00;62900.06;5113783;28;20081;-62
2022/07/16 05:48:54;;;;;;;7.32;7.03;;;;;;;-143.83;100.00;62900.06;5113637;28;20020;-62
2022/07/16 05:51:20;;;;;;;7.10;6.80;;;;;;;-143.83;100.00;62900.06;5113767;28;20020;-61
2022/07/16 05:53:45;;;;;;;7.20;6.90;;;;;;;-143.83;100.00;62900.06;5112024;28;20023;-61
2022/07/16 05:56:11;;;;;;;7.07;6.78;;;;;;;-143.83;100.00;62900.06;5102852;28;20168;-61
2022/07/16 05:58:36;;;;;;;7.30;7.00;;;;;;;-143.83;100.00;62900.06;5110848;28;20498;-62
2022/07/16 06:01:02;;;;;;;7.57;7.28;;;;;;;-143.83;100.00;62900.06;5113871;28;20023;-61
2022/07/16 06:03:27;;;;;;;7.47;7.18;;;;;;;-143.83;100.00;62900.06;5110472;28;20396;-61
2022/07/16 06:05:53;;;;;;;7.28;6.97;;;;;;;-143.83;100.00;62900.06;5113341;28;20020;-62
2022/07/16 06:08:18;;;;;;;7.20;6.90;;;;;;;-143.83;100.00;62900.06;5113470;28;20041;-61
2022/07/16 06:10:44;;;;;;;7.20;6.90;;;;;;;-143.83;100.00;62900.06;5113388;28;20031;-61
2022/07/16 06:13:10;;;;;;;7.15;6.85;;;;;;;-143.83;100.00;62900.06;5102959;28;20024;-61
2022/07/16 06:15:36;;;;;;;7.40;7.10;;;;;;;-143.83;100.00;62900.06;5101743;28;20047;-61
2022/07/16 06:18:01;;;;;;;7.40;7.10;;;;;;;-143.83;100.00;62900.06;5111701;28;20560;-62
2022/07/16 06:20:27;;;;;;;7.57;7.28;;;;;;;-143.83;100.00;62900.06;5111745;28;20096;-62
2022/07/16 06:22:54;;;;;;;7.50;7.20;;;;;;;-143.83;100.00;62900.06;5102352;28;20024;-62
2022/07/16 06:25:20;;;;;;;7.28;6.97;;;;;;;-143.83;100.00;62900.06;5106833;28;20026;-62
2022/07/16 06:27:45;;;;;;;7.47;7.18;;;;;;;-143.83;100.00;62900.06;5105673;28;20019;-62
2022/07/16 06:30:12;;;;;;;7.22;6.93;;;;;;;-143.83;100.00;62900.06;5099099;28;20024;-61
2022/07/16 06:32:38;;;;;;;6.97;6.68;;;;;;;-143.83;100.00;62900.06;5113262;27;20035;-61
2022/07/16 06:35:04;;;;;;;7.10;6.80;;;;;;;-143.83;100.00;62900.06;5112193;28;20023;-61
2022/07/16 06:37:30;;;;;;;7.10;6.80;;;;;;;-143.83;100.00;62900.06;5100863;28;20041;-62
2022/07/16 06:39:55;;;;;;;7.22;6.93;;;;;;;-143.83;100.00;62900.06;5107395;28;20438;-62
2022/07/16 06:42:21;;;;;;;7.15;6.85;;;;;;;-143.83;100.00;62900.06;5112447;28;20074;-61
2022/07/16 06:44:46;;;;;;;7.18;6.88;;;;;;;-143.83;100.00;62900.06;5112617;28;20035;-62
2022/07/16 06:47:13;;;;;;;7.20;6.90;;;;;;;-143.83;100.00;62900.06;5111513;28;20418;-62
2022/07/16 06:49:38;;;;;;;7.18;6.88;;;;;;;-143.83;100.00;62900.06;5112146;28;20015;-63
2022/07/16 06:52:04;;;;;;;7.40;7.10;;;;;;;-143.83;100.00;62900.06;5112326;28;20020;-62
2022/07/16 06:54:29;;;;;;;7.20;6.90;;;;;;;-143.83;100.00;62900.06;5110979;28;20026;-62
2022/07/16 06:56:55;;;;;;;7.20;6.90;;;;;;;-143.83;100.00;62900.06;5112328;28;20020;-62
2022/07/16 06:59:20;;;;;;;7.10;6.80;;;;;;;-143.83;100.00;62900.06;5112015;28;20490;-62
2022/07/16 07:01:46;;;;;;;7.20;6.90;;;;;;;-143.83;100.00;62900.06;5111957;28;20019;-62
2022/07/16 07:04:11;;;;;;;7.35;7.05;;;;;;;-143.83;100.00;62900.06;5101799;28;20510;-62
2022/07/16 07:06:37;;;;;;;7.22;6.93;;;;;;;-143.83;100.00;62900.06;5109067;28;20077;-61
2022/07/16 07:09:02;;;;;;;7.40;7.10;;;;;;;-143.83;100.00;62900.06;5112088;28;20390;-62
2022/07/16 07:11:28;;;;;;;7.32;7.03;;;;;;;-143.83;100.00;62900.06;5112325;28;20023;-61
2022/07/16 07:13:53;;;;;;;7.30;7.00;;;;;;;-143.83;100.00;62900.06;5101599;28;20126;-62
2022/07/16 07:16:19;;;;;;;7.18;6.88;;;;;;;-143.83;100.00;62900.06;5106800;28;20456;-62
2022/07/16 07:18:44;;;;;;;7.18;6.88;;;;;;;-143.83;100.00;62900.06;5107571;28;20035;-62
2022/07/16 07:21:10;;;;;;;7.53;7.22;;;;;;;-143.83;100.00;62900.06;5101072;28;20024;-61
2022/07/16 07:23:36;;;;;;;7.25;6.95;;;;;;;-143.83;100.00;62900.06;5108312;28;20028;-62
2022/07/16 07:26:01;;;;;;;7.20;6.90;;;;;;;-143.83;100.00;62900.06;5112013;28;20157;-62
2022/07/16 07:28:28;;;;;;;7.00;6.70;;;;;;;-143.83;100.00;62900.06;5112035;28;20024;-62
2022/07/16 07:30:55;;;;;;;6.95;6.65;;;;;;;-143.83;100.00;62900.06;5111979;28;20027;-62
2022/07/16 07:33:20;;;;;;;7.28;6.97;;;;;;;-143.83;100.00;62900.06;5111990;28;20048;-62
2022/07/16 07:35:46;;;;;;;7.20;6.90;;;;;;;-143.83;100.00;62900.06;5112056;28;20016;-62
2022/07/16 07:38:12;;;;;;;7.22;6.93;;;;;;;-143.83;100.00;62900.06;5108025;28;20042;-63
2022/07/16 07:40:37;;;;;;;7.00;6.70;;;;;;;-143.83;100.00;62900.06;5111310;28;20044;-62
2022/07/16 07:43:04;;;;;;;7.28;6.97;;;;;;;-143.83;100.00;62900.06;5111580;28;20031;-63
2022/07/16 07:45:29;;;;;;;7.15;6.85;;;;;;;-143.83;100.00;62900.06;5111843;28;20102;-62
2022/07/16 07:47:55;;;;;;;7.10;6.80;;;;;;;-143.83;100.00;62900.06;5105975;28;20107;-63
2022/07/16 07:50:21;;;;;;;7.00;6.70;;;;;;;-143.83;100.00;62900.06;5112017;28;20024;-62
2022/07/16 07:52:46;;;;;;;7.05;6.75;;;;;;;-143.83;100.00;62900.06;5111829;28;20466;-62
2022/07/16 07:55:12;;;;;;;6.88;6.57;;;;;;;-143.83;100.00;62900.06;5110988;28;20031;-62
2022/07/16 07:57:37;;;;;;;6.90;6.60;;;;;;;-143.83;100.00;62900.06;5111655;28;20023;-61
2022/07/16 08:00:05;;;;;;;7.00;6.70;;;;;;;-143.83;100.00;62900.06;5111560;28;20049;-61
2022/07/16 08:02:31;;;;;;;7.20;6.90;;;;;;;-143.83;100.00;62900.06;5109656;28;20173;-62
2022/07/16 08:04:56;;;;;;;7.20;6.90;;;;;;;-143.83;100.00;62900.06;5111848;28;20106;-62
2022/07/16 08:07:22;;;;;;;7.13;6.82;;;;;;;-143.83;100.00;62900.06;5111332;28;20063;-62
2022/07/16 08:09:48;;;;;;;7.05;6.75;;;;;;;-143.83;100.00;62900.06;5111275;28;20027;-62
2022/07/16 08:12:14;;;;;;;6.82;6.53;;;;;;;-143.83;100.00;62900.06;5100792;28;20028;-61
2022/07/16 08:14:39;;;;;;;6.82;6.53;;;;;;;-143.83;100.00;62900.06;5100248;28;20024;-62
2022/07/16 08:17:05;;;;;;;6.97;6.68;;;;;;;-143.83;100.00;62900.06;5107183;28;20433;-62
2022/07/16 08:19:31;;;;;;;6.90;6.60;;;;;;;-143.83;100.00;62900.06;5110491;28;20471;-62
2022/07/16 08:21:57;;;;;;;6.80;6.50;;;;;;;-143.83;100.00;62900.06;5115396;28;20062;-62
2022/07/16 08:27:07;;;;;;;7.00;6.70;;;;;;;-143.83;100.00;62900.06;5104456;28;20068;-62
2022/07/16 08:29:32;;;;;;;7.00;6.70;;;;;;;-143.83;100.00;62900.06;5120887;27;20431;-62
2022/07/16 08:31:58;;;;;;;6.95;6.65;;;;;;;-143.83;100.00;62900.06;5115279;28;20051;-62
2022/07/16 08:34:24;;;;;;;7.10;6.80;;;;;;;-143.83;100.00;62900.06;5115507;27;20028;-61
2022/07/16 08:36:51;;;;;;;7.00;6.70;;;;;;;-143.83;100.00;62900.06;5117520;27;20035;-63
2022/07/16 08:39:17;;;;;;;6.82;6.53;;;;;;;-143.83;100.00;62900.06;5108616;28;20090;-62
2022/07/16 08:41:43;;;;;;;6.78;6.47;;;;;;;-143.83;100.00;62900.06;5101944;28;20445;-62
2022/07/16 08:44:12;;;;;;;6.93;6.63;;;;;;;-143.83;100.00;62900.06;5107925;28;20491;-61
2022/07/16 08:46:37;;;;;;;7.30;7.00;;;;;;;-143.83;100.00;62900.06;5101375;28;20031;-61
2022/07/16 08:49:03;;;;;;;7.10;6.80;;;;;;;-143.83;100.00;62900.06;5115253;28;20470;-62
2022/07/16 08:51:34;;;;;;;7.15;6.85;;;;;;;-143.83;100.00;62900.06;5128659;27;20024;-62
2022/07/16 08:54:18;;;;;;;7.00;6.70;;;;;;;-143.83;100.00;62900.06;5114843;28;20023;-62
2022/07/16 08:56:44;;;;;;;6.97;6.68;;;;;;;-143.83;100.00;62900.06;5114591;28;20098;-62
2022/07/16 08:59:10;;;;;;;7.03;6.72;;;;;;;-143.83;100.00;62900.06;5115128;28;20170;-62
2022/07/16 09:01:36;;;;;;;6.90;6.60;;;;;;;-143.83;100.00;62900.06;5114719;28;20019;-62
2022/07/16 09:04:03;;;;;;;6.72;6.43;;;;;;;-143.83;100.00;62900.06;5114328;28;20039;-61
2022/07/16 09:06:29;;;;;;;7.00;6.70;;;;;;;-143.83;100.00;62900.06;5114795;28;20034;-62
2022/07/16 09:08:55;;;;;;;6.80;6.50;;;;;;;-143.83;100.00;62900.06;5114593;28;20023;-62
2022/07/16 09:11:35;;;;;;;6.90;6.60;;;;;;;-143.83;100.00;62900.06;5100520;28;20050;-62
2022/07/16 09:14:06;;;;;;;6.88;6.57;;;;;;;-143.83;100.00;62900.06;5103214;28;20068;-62
2022/07/16 09:16:52;;;;;;;6.90;6.60;;;;;;;-143.83;100.00;62900.06;5114170;28;20024;-62
2022/07/16 09:19:23;;;;;;;7.00;6.70;;;;;;;-143.83;100.00;62900.06;5110558;28;20288;-62
2022/07/16 09:21:59;;;;;;;6.90;6.60;;;;;;;-143.83;100.00;62900.06;5114217;28;20027;-62
2022/07/16 09:24:52;;;;;;;6.80;6.50;;;;;;;-143.83;100.00;62900.06;5114256;28;20428;-62
2022/07/16 09:27:24;;;;;;;6.80;6.50;;;;;;;-143.83;100.00;62900.06;5107372;28;20035;-62
2022/07/16 09:29:58;;;;;;;7.00;6.70;;;;;;;-143.83;100.00;62900.06;5121138;27;20028;-62
2022/07/16 09:32:31;;;;;;;;;;;;;;;-143.83;100.00;62900.06;5113510;28;20023;-62
2022/07/16 09:35:04;;;;;;;7.13;6.82;;;;;;;-143.83;100.00;62900.06;5114112;28;19912;-61
2022/07/16 09:37:45;;;;;;;6.70;6.40;;;;;;;-143.83;100.00;62900.06;5113337;28;20133;-62
2022/07/16 09:40:11;;;;;;;6.68;6.38;;;;;;;-143.83;100.00;62900.06;5102852;28;20099;-62
2022/07/16 09:42:38;;;;;;;6.70;6.40;;;;;;;-143.83;100.00;62900.06;5114131;28;20489;-62
2022/07/16 09:45:05;;;;;;;6.70;6.40;;;;;;;-143.83;100.00;62900.06;5113348;28;20398;-61
2022/07/16 09:47:31;;;;;;;6.90;6.60;;;;;;;-143.83;100.00;62900.06;5113932;28;20026;-62
2022/07/16 09:49:57;;;;;;;6.72;6.43;;;;;;;-143.83;100.00;62900.06;5113616;28;20031;-62
2022/07/16 09:52:37;;;;;;;6.72;6.43;;;;;;;-143.83;100.00;62900.06;5113647;28;20015;-62
2022/07/16 09:55:03;;;;;;;6.88;6.57;;;;;;;-143.83;100.00;62900.06;5105317;28;20027;-62
2022/07/16 09:57:30;;;;;;;6.80;6.50;;;;;;;-143.83;100.00;62900.06;5113705;28;20030;-62
2022/07/16 09:59:56;;;;;;;6.90;6.60;;;;;;;-143.83;100.00;62900.06;5113545;28;20391;-62
2022/07/16 10:02:23;;;;;;;6.88;6.57;;;;;;;-143.83;100.00;62900.06;5113447;28;20088;-62
2022/07/16 10:04:49;;;;;;;6.82;6.53;;;;;;;-143.83;100.00;62900.06;5111363;28;20024;-63
2022/07/16 10:07:16;;;;;;;6.85;6.55;;;;;;;-143.83;100.00;62900.06;5100452;28;20032;-62
2022/07/16 10:09:42;;;;;;;6.90;6.60;;;;;;;-143.83;100.00;62900.06;5109784;28;20036;-62
2022/07/16 10:12:11;;;;;;;6.80;6.50;;;;;;;-143.83;100.00;62900.06;5112446;28;20023;-62
2022/07/16 10:14:40;;;;;;;7.00;6.70;;;;;;;-143.83;100.00;62900.06;5113371;28;20015;-62
2022/07/16 10:17:16;;;;;;;7.00;6.70;;;;;;;-143.83;100.00;62900.06;5113195;28;20031;-61
2022/07/16 10:19:42;;;;;;;6.90;6.60;;;;;;;-143.83;100.00;62900.06;5113227;28;20027;-62
2022/07/16 10:22:20;;;;;;;6.70;6.40;;;;;;;-143.83;100.00;62900.06;5113219;28;20050;-62
2022/07/16 10:24:53;;;;;;;6.78;6.47;;;;;;;-143.83;100.00;62900.06;5116568;27;20561;-62
2022/07/16 10:27:28;;;;;;;6.80;6.50;;;;;;;-143.83;100.00;62900.06;5115263;27;20069;-63
2022/07/16 10:30:13;;;;;;;7.10;6.80;;;;;;;-143.83;100.00;62900.06;5112641;28;20019;-62
2022/07/16 10:33:00;;;;;;;6.82;6.53;;;;;;;-143.83;100.00;62900.06;5101212;28;20031;-63
2022/07/16 10:35:35;;;;;;;6.60;6.30;;;;;;;-143.83;100.00;62900.06;5113070;28;20020;-61
2022/07/16 10:38:25;;;;;;;7.00;6.70;;;;;;;-143.83;100.00;62900.06;5112451;28;20086;-62
2022/07/16 10:41:11;;;;;;;7.00;6.70;;;;;;;-143.83;100.00;62900.06;5126356;27;20067;-61
2022/07/16 10:43:37;;;;;;;7.00;6.70;;;;;;;-143.83;100.00;62900.06;5112058;28;20038;-61
2022/07/16 10:46:07;;;;;;;6.90;6.60;;;;;;;-143.83;100.00;62900.06;5112235;28;20023;-62
2022/07/16 10:48:36;;;;;;;6.55;6.25;;;;;;;-143.83;100.00;62900.06;5112403;28;20023;-62
2022/07/16 10:51:15;;;;;;;6.85;6.55;;;;;;;-143.83;100.00;62900.06;5112457;28;20019;-62
2022/07/16 10:54:01;;;;;;;6.68;6.38;;;;;;;-143.83;100.00;62900.06;5112701;28;20015;-61
2022/07/16 10:56:52;;;;;;;6.60;6.30;;;;;;;-143.83;100.00;62900.06;5109165;28;20482;-62
2022/07/16 10:59:20;;;;;;;6.60;6.30;;;;;;;-143.83;100.00;62900.06;5107058;28;20514;-62
2022/07/16 11:01:49;;;;;;;6.70;6.40;;;;;;;-143.83;100.00;62900.06;5103035;28;20035;-61
2022/07/16 11:04:15;;;;;;;6.50;6.20;;;;;;;-143.83;100.00;62900.06;5094724;28;20039;-62
2022/07/16 11:06:50;;;;;;;6.70;6.40;;;;;;;-143.83;100.00;62900.06;5112686;28;20100;-61
2022/07/16 11:09:24;;;;;;;7.00;6.70;;;;;;;-143.83;100.00;62900.06;5112355;28;20026;-62
2022/07/16 11:11:50;;;;;;;6.53;6.22;;;;;;;-143.83;100.00;62900.06;5112415;28;20571;-62
2022/07/16 11:14:15;;;;;;;6.60;6.30;;;;;;;-143.83;100.00;62900.06;5107792;28;20042;-62
2022/07/16 11:16:51;;;;;;;6.60;6.30;;;;;;;-143.83;100.00;62900.06;5101648;28;20090;-62